sensor_id;sensor_type;location;lat;lon;timestamp;temperature;humidity
13389;DHT22;6764;53.250;10.410;2023-01-13T00:02:12;10.90;99.90
13389;DHT22;6764;53.250;10.410;2023-01-13T00:04:37;11.00;99.90
13389;DHT22;6764;53.250;10.410;2023-01-13T00:07:03;11.00;99.90
13389;DHT22;6764;53.250;10.410;2023-01-13T00:09:29;11.00;99.90
13389;DHT22;6764;53.250;10.410;2023-01-13T00:11:54;11.00;99.90
13389;DHT22;6764;53.250;10.410;2023-01-13T00:14:20;11.00;99.90
13389;DHT22;6764;53.250;10.410;2023-01-13T00:16:46;11.00;99.90
13389;DHT22;6764;53.250;10.410;2023-01-13T00:19:12;11.10;99.90
13389;DHT22;6764;53.250;10.410;2023-01-13T00:21:37;11.00;99.90
13389;DHT22;6764;53.250;10.410;2023-01-13T00:24:03;11.00;99.90
13389;DHT22;6764;53.250;10.410;2023-01-13T00:26:29;11.10;99.90
13389;DHT22;6764;53.250;10.410;2023-01-13T00:28:58;11.10;99.90
13389;DHT22;6764;53.250;10.410;2023-01-13T00:31:25;11.10;99.90
13389;DHT22;6764;53.250;10.410;2023-01-13T00:33:51;11.10;99.90
13389;DHT22;6764;53.250;10.410;2023-01-13T00:36:18;11.10;99.90
13389;DHT22;6764;53.250;10.410;2023-01-13T00:38:44;11.10;99.90
13389;DHT22;6764;53.250;10.410;2023-01-13T00:41:12;11.00;99.90
13389;DHT22;6764;53.250;10.410;2023-01-13T00:43:38;11.00;99.90
13389;DHT22;6764;53.250;10.410;2023-01-13T00:46:05;11.00;99.90
13389;DHT22;6764;53.250;10.410;2023-01-13T00:48:31;11.00;99.90
13389;DHT22;6764;53.250;10.410;2023-01-13T00:51:26;11.00;99.90
13389;DHT22;6764;53.250;10.410;2023-01-13T00:53:52;11.00;99.90
13389;DHT22;6764;53.250;10.410;2023-01-13T00:56:20;11.00;99.90
13389;DHT22;6764;53.250;10.410;2023-01-13T00:58:46;11.00;99.90
13389;DHT22;6764;53.250;10.410;2023-01-13T01:01:17;10.90;99.90
13389;DHT22;6764;53.250;10.410;2023-01-13T01:03:46;10.90;99.90
13389;DHT22;6764;53.250;10.410;2023-01-13T01:06:17;10.90;99.90
13389;DHT22;6764;53.250;10.410;2023-01-13T01:08:43;10.70;99.90
13389;DHT22;6764;53.250;10.410;2023-01-13T01:11:12;10.60;99.90
13389;DHT22;6764;53.250;10.410;2023-01-13T01:13:39;10.60;99.90
13389;DHT22;6764;53.250;10.410;2023-01-13T01:16:08;10.60;99.90
13389;DHT22;6764;53.250;10.410;2023-01-13T01:18:39;10.60;99.90
13389;DHT22;6764;53.250;10.410;2023-01-13T01:21:05;10.50;99.90
13389;DHT22;6764;53.250;10.410;2023-01-13T01:23:32;10.50;99.90
13389;DHT22;6764;53.250;10.410;2023-01-13T01:26:02;10.40;99.90
13389;DHT22;6764;53.250;10.410;2023-01-13T01:28:28;10.40;99.90
13389;DHT22;6764;53.250;10.410;2023-01-13T01:30:54;10.40;99.90
13389;DHT22;6764;53.250;10.410;2023-01-13T01:33:20;10.30;99.90
13389;DHT22;6764;53.250;10.410;2023-01-13T01:35:46;10.30;99.90
13389;DHT22;6764;53.250;10.410;2023-01-13T01:38:12;10.20;99.90
13389;DHT22;6764;53.250;10.410;2023-01-13T01:40:37;10.20;99.90
13389;DHT22;6764;53.250;10.410;2023-01-13T01:43:13;10.20;99.90
13389;DHT22;6764;53.250;10.410;2023-01-13T01:45:58;10.20;99.90
13389;DHT22;6764;53.250;10.410;2023-01-13T01:48:23;10.20;99.90
13389;DHT22;6764;53.250;10.410;2023-01-13T01:50:49;10.10;99.90
13389;DHT22;6764;53.250;10.410;2023-01-13T01:53:18;10.00;99.90
13389;DHT22;6764;53.250;10.410;2023-01-13T01:55:45;10.00;99.90
13389;DHT22;6764;53.250;10.410;2023-01-13T01:58:16;10.00;99.90
13389;DHT22;6764;53.250;10.410;2023-01-13T02:00:43;9.90;99.90
13389;DHT22;6764;53.250;10.410;2023-01-13T02:03:09;10.00;99.90
13389;DHT22;6764;53.250;10.410;2023-01-13T02:05:36;9.90;99.90
13389;DHT22;6764;53.250;10.410;2023-01-13T02:08:03;9.90;99.90
13389;DHT22;6764;53.250;10.410;2023-01-13T02:10:30;9.90;99.90
13389;DHT22;6764;53.250;10.410;2023-01-13T02:13:00;9.90;99.90
13389;DHT22;6764;53.250;10.410;2023-01-13T02:15:50;9.80;99.90
13389;DHT22;6764;53.250;10.410;2023-01-13T02:18:50;9.80;99.90
13389;DHT22;6764;53.250;10.410;2023-01-13T02:24:48;9.60;99.90
13389;DHT22;6764;53.250;10.410;2023-01-13T02:27:38;9.60;99.90
13389;DHT22;6764;53.250;10.410;2023-01-13T02:36:26;9.50;99.90
13389;DHT22;6764;53.250;10.410;2023-01-13T02:44:23;9.50;99.90
13389;DHT22;6764;53.250;10.410;2023-01-13T02:46:58;9.50;99.90
13389;DHT22;6764;53.250;10.410;2023-01-13T02:49:29;9.40;99.90
13389;DHT22;6764;53.250;10.410;2023-01-13T02:52:05;9.40;99.90
13389;DHT22;6764;53.250;10.410;2023-01-13T02:54:35;9.40;99.90
13389;DHT22;6764;53.250;10.410;2023-01-13T02:57:02;9.30;99.90
13389;DHT22;6764;53.250;10.410;2023-01-13T02:59:29;9.30;99.90
13389;DHT22;6764;53.250;10.410;2023-01-13T03:01:56;9.30;99.90
13389;DHT22;6764;53.250;10.410;2023-01-13T03:04:44;9.20;99.90
13389;DHT22;6764;53.250;10.410;2023-01-13T03:10:18;9.10;99.90
13389;DHT22;6764;53.250;10.410;2023-01-13T03:12:58;9.10;99.90
13389;DHT22;6764;53.250;10.410;2023-01-13T03:23:45;9.00;99.90
13389;DHT22;6764;53.250;10.410;2023-01-13T03:26:19;9.00;99.90
13389;DHT22;6764;53.250;10.410;2023-01-13T03:28:53;9.00;99.90
13389;DHT22;6764;53.250;10.410;2023-01-13T03:31:28;9.00;99.90
13389;DHT22;6764;53.250;10.410;2023-01-13T03:33:58;8.90;99.90
13389;DHT22;6764;53.250;10.410;2023-01-13T03:36:27;8.90;99.90
13389;DHT22;6764;53.250;10.410;2023-01-13T03:38:57;8.80;99.90
13389;DHT22;6764;53.250;10.410;2023-01-13T03:41:32;8.80;99.90
13389;DHT22;6764;53.250;10.410;2023-01-13T03:49:27;8.70;99.90
13389;DHT22;6764;53.250;10.410;2023-01-13T03:51:59;8.70;99.90
13389;DHT22;6764;53.250;10.410;2023-01-13T03:54:28;8.70;99.90
13389;DHT22;6764;53.250;10.410;2023-01-13T03:57:00;8.70;99.90
13389;DHT22;6764;53.250;10.410;2023-01-13T03:59:31;8.70;99.90
13389;DHT22;6764;53.250;10.410;2023-01-13T04:02:02;8.60;99.90
13389;DHT22;6764;53.250;10.410;2023-01-13T04:05:14;8.60;99.90
13389;DHT22;6764;53.250;10.410;2023-01-13T04:07:56;8.60;99.90
13389;DHT22;6764;53.250;10.410;2023-01-13T04:10:34;8.50;99.90
13389;DHT22;6764;53.250;10.410;2023-01-13T04:13:06;8.60;99.90
13389;DHT22;6764;53.250;10.410;2023-01-13T04:15:38;8.60;99.90
13389;DHT22;6764;53.250;10.410;2023-01-13T04:18:16;8.50;99.90
13389;DHT22;6764;53.250;10.410;2023-01-13T04:20:43;8.50;99.90
13389;DHT22;6764;53.250;10.410;2023-01-13T04:23:10;8.50;99.90
13389;DHT22;6764;53.250;10.410;2023-01-13T04:25:39;8.50;99.90
13389;DHT22;6764;53.250;10.410;2023-01-13T04:28:04;8.50;99.90
13389;DHT22;6764;53.250;10.410;2023-01-13T04:30:30;8.50;99.90
13389;DHT22;6764;53.250;10.410;2023-01-13T04:32:56;8.50;99.90
13389;DHT22;6764;53.250;10.410;2023-01-13T04:35:21;8.50;99.90
13389;DHT22;6764;53.250;10.410;2023-01-13T04:37:47;8.50;99.90
13389;DHT22;6764;53.250;10.410;2023-01-13T04:40:13;8.50;99.90
13389;DHT22;6764;53.250;10.410;2023-01-13T04:42:38;8.50;99.90
13389;DHT22;6764;53.250;10.410;2023-01-13T04:45:04;8.40;99.90
13389;DHT22;6764;53.250;10.410;2023-01-13T04:47:30;8.40;99.90
13389;DHT22;6764;53.250;10.410;2023-01-13T04:49:56;8.40;99.90
13389;DHT22;6764;53.250;10.410;2023-01-13T04:52:21;8.40;99.90
13389;DHT22;6764;53.250;10.410;2023-01-13T04:54:47;8.40;99.90
13389;DHT22;6764;53.250;10.410;2023-01-13T04:57:13;8.40;99.90
13389;DHT22;6764;53.250;10.410;2023-01-13T04:59:38;8.40;99.90
13389;DHT22;6764;53.250;10.410;2023-01-13T05:02:06;8.40;99.90
13389;DHT22;6764;53.250;10.410;2023-01-13T05:04:33;8.40;99.90
13389;DHT22;6764;53.250;10.410;2023-01-13T05:06:59;8.40;99.90
13389;DHT22;6764;53.250;10.410;2023-01-13T05:09:24;8.40;99.90
13389;DHT22;6764;53.250;10.410;2023-01-13T05:11:50;8.40;99.90
13389;DHT22;6764;53.250;10.410;2023-01-13T05:14:34;8.40;99.90
13389;DHT22;6764;53.250;10.410;2023-01-13T05:17:21;8.40;99.90
13389;DHT22;6764;53.250;10.410;2023-01-13T05:19:48;8.40;99.90
13389;DHT22;6764;53.250;10.410;2023-01-13T05:22:14;8.30;99.90
13389;DHT22;6764;53.250;10.410;2023-01-13T05:24:58;8.30;99.90
13389;DHT22;6764;53.250;10.410;2023-01-13T05:27:42;8.30;99.90
13389;DHT22;6764;53.250;10.410;2023-01-13T05:30:09;8.30;99.90
13389;DHT22;6764;53.250;10.410;2023-01-13T05:32:34;8.30;99.90
13389;DHT22;6764;53.250;10.410;2023-01-13T05:35:00;8.20;99.90
13389;DHT22;6764;53.250;10.410;2023-01-13T05:37:26;8.30;99.90
13389;DHT22;6764;53.250;10.410;2023-01-13T05:39:52;8.30;99.90
13389;DHT22;6764;53.250;10.410;2023-01-13T05:42:37;8.30;99.90
13389;DHT22;6764;53.250;10.410;2023-01-13T05:45:21;8.30;99.90
13389;DHT22;6764;53.250;10.410;2023-01-13T05:47:47;8.30;99.90
13389;DHT22;6764;53.250;10.410;2023-01-13T05:50:12;8.30;99.90
13389;DHT22;6764;53.250;10.410;2023-01-13T05:52:38;8.30;99.90
13389;DHT22;6764;53.250;10.410;2023-01-13T05:55:04;8.30;99.90
13389;DHT22;6764;53.250;10.410;2023-01-13T05:57:30;8.30;99.90
13389;DHT22;6764;53.250;10.410;2023-01-13T05:59:56;8.30;99.90
13389;DHT22;6764;53.250;10.410;2023-01-13T06:02:21;8.30;99.90
13389;DHT22;6764;53.250;10.410;2023-01-13T06:04:47;8.20;99.90
13389;DHT22;6764;53.250;10.410;2023-01-13T06:07:13;8.20;99.90
13389;DHT22;6764;53.250;10.410;2023-01-13T06:09:38;8.20;99.90
13389;DHT22;6764;53.250;10.410;2023-01-13T06:12:04;8.20;99.90
13389;DHT22;6764;53.250;10.410;2023-01-13T06:14:30;8.20;99.90
13389;DHT22;6764;53.250;10.410;2023-01-13T06:17:09;8.20;99.90
13389;DHT22;6764;53.250;10.410;2023-01-13T06:19:36;8.20;99.90
13389;DHT22;6764;53.250;10.410;2023-01-13T06:22:20;8.20;99.90
13389;DHT22;6764;53.250;10.410;2023-01-13T06:24:52;8.20;99.90
13389;DHT22;6764;53.250;10.410;2023-01-13T06:27:19;8.20;99.90
13389;DHT22;6764;53.250;10.410;2023-01-13T06:29:45;8.20;99.90
13389;DHT22;6764;53.250;10.410;2023-01-13T06:32:16;8.30;99.90
13389;DHT22;6764;53.250;10.410;2023-01-13T06:34:46;8.30;99.90
13389;DHT22;6764;53.250;10.410;2023-01-13T06:37:15;8.40;99.90
13389;DHT22;6764;53.250;10.410;2023-01-13T06:39:42;8.40;99.90
13389;DHT22;6764;53.250;10.410;2023-01-13T06:42:08;8.50;99.90
13389;DHT22;6764;53.250;10.410;2023-01-13T06:44:52;8.50;99.90
13389;DHT22;6764;53.250;10.410;2023-01-13T06:47:17;8.50;99.90
13389;DHT22;6764;53.250;10.410;2023-01-13T06:49:43;8.60;99.90
13389;DHT22;6764;53.250;10.410;2023-01-13T06:52:09;8.60;99.90
13389;DHT22;6764;53.250;10.410;2023-01-13T06:54:34;8.60;99.90
13389;DHT22;6764;53.250;10.410;2023-01-13T06:57:01;8.60;99.90
13389;DHT22;6764;53.250;10.410;2023-01-13T06:59:27;8.60;99.90
13389;DHT22;6764;53.250;10.410;2023-01-13T07:01:52;8.60;99.90
13389;DHT22;6764;53.250;10.410;2023-01-13T07:04:18;8.60;99.90
13389;DHT22;6764;53.250;10.410;2023-01-13T07:06:43;8.60;99.90
13389;DHT22;6764;53.250;10.410;2023-01-13T07:09:09;8.50;99.90
13389;DHT22;6764;53.250;10.410;2023-01-13T07:11:35;8.50;99.90
13389;DHT22;6764;53.250;10.410;2023-01-13T07:14:00;8.50;99.90
13389;DHT22;6764;53.250;10.410;2023-01-13T07:16:44;8.60;99.90
13389;DHT22;6764;53.250;10.410;2023-01-13T07:19:10;8.60;99.90
13389;DHT22;6764;53.250;10.410;2023-01-13T07:21:36;8.60;99.90
13389;DHT22;6764;53.250;10.410;2023-01-13T07:24:01;8.60;99.90
13389;DHT22;6764;53.250;10.410;2023-01-13T07:26:27;8.60;99.90
13389;DHT22;6764;53.250;10.410;2023-01-13T07:28:53;8.60;99.90
13389;DHT22;6764;53.250;10.410;2023-01-13T07:31:19;8.70;99.90
13389;DHT22;6764;53.250;10.410;2023-01-13T07:33:46;8.60;99.90
13389;DHT22;6764;53.250;10.410;2023-01-13T07:36:12;8.60;99.90
13389;DHT22;6764;53.250;10.410;2023-01-13T07:38:38;8.50;99.90
13389;DHT22;6764;53.250;10.410;2023-01-13T07:41:05;8.50;99.90
13389;DHT22;6764;53.250;10.410;2023-01-13T07:43:50;8.50;99.90
13389;DHT22;6764;53.250;10.410;2023-01-13T07:46:16;8.50;99.90
13389;DHT22;6764;53.250;10.410;2023-01-13T07:48:42;8.40;99.90
13389;DHT22;6764;53.250;10.410;2023-01-13T07:51:09;8.50;99.90
13389;DHT22;6764;53.250;10.410;2023-01-13T07:53:35;8.50;99.90
13389;DHT22;6764;53.250;10.410;2023-01-13T07:56:03;8.50;99.90
13389;DHT22;6764;53.250;10.410;2023-01-13T07:58:29;8.60;99.90
13389;DHT22;6764;53.250;10.410;2023-01-13T08:00:55;8.50;99.90
13389;DHT22;6764;53.250;10.410;2023-01-13T08:03:22;8.50;99.90
13389;DHT22;6764;53.250;10.410;2023-01-13T08:05:48;8.50;99.90
13389;DHT22;6764;53.250;10.410;2023-01-13T08:08:14;8.50;99.90
13389;DHT22;6764;53.250;10.410;2023-01-13T08:10:40;8.50;99.90
13389;DHT22;6764;53.250;10.410;2023-01-13T08:13:16;8.50;99.90
13389;DHT22;6764;53.250;10.410;2023-01-13T08:15:48;8.60;99.90
13389;DHT22;6764;53.250;10.410;2023-01-13T08:18:14;8.50;99.90
13389;DHT22;6764;53.250;10.410;2023-01-13T08:20:40;8.60;99.90
13389;DHT22;6764;53.250;10.410;2023-01-13T08:23:06;8.60;99.90
13389;DHT22;6764;53.250;10.410;2023-01-13T08:25:31;8.60;99.90
13389;DHT22;6764;53.250;10.410;2023-01-13T08:27:57;8.50;99.90
13389;DHT22;6764;53.250;10.410;2023-01-13T08:30:25;8.60;99.90
13389;DHT22;6764;53.250;10.410;2023-01-13T08:32:51;8.60;99.90
13389;DHT22;6764;53.250;10.410;2023-01-13T08:35:17;8.60;99.90
13389;DHT22;6764;53.250;10.410;2023-01-13T08:37:44;8.50;99.90
13389;DHT22;6764;53.250;10.410;2023-01-13T08:40:11;8.50;99.90
13389;DHT22;6764;53.250;10.410;2023-01-13T08:42:37;8.50;99.90
13389;DHT22;6764;53.250;10.410;2023-01-13T08:45:04;8.50;99.90
13389;DHT22;6764;53.250;10.410;2023-01-13T08:47:30;8.50;99.90
13389;DHT22;6764;53.250;10.410;2023-01-13T08:49:56;8.50;99.90
13389;DHT22;6764;53.250;10.410;2023-01-13T08:52:22;8.60;99.90
13389;DHT22;6764;53.250;10.410;2023-01-13T08:54:48;8.70;99.90
13389;DHT22;6764;53.250;10.410;2023-01-13T08:57:14;8.70;99.90
13389;DHT22;6764;53.250;10.410;2023-01-13T08:59:40;8.70;99.90
13389;DHT22;6764;53.250;10.410;2023-01-13T09:02:34;8.70;99.90
13389;DHT22;6764;53.250;10.410;2023-01-13T09:04:59;8.80;99.90
13389;DHT22;6764;53.250;10.410;2023-01-13T09:07:28;8.80;99.90
13389;DHT22;6764;53.250;10.410;2023-01-13T09:09:54;8.80;99.90
13389;DHT22;6764;53.250;10.410;2023-01-13T09:12:24;8.80;99.90
13389;DHT22;6764;53.250;10.410;2023-01-13T09:15:08;8.80;99.90
13389;DHT22;6764;53.250;10.410;2023-01-13T09:17:34;8.90;99.90
13389;DHT22;6764;53.250;10.410;2023-01-13T09:19:59;8.90;99.90
13389;DHT22;6764;53.250;10.410;2023-01-13T09:22:25;8.90;99.90
13389;DHT22;6764;53.250;10.410;2023-01-13T09:24:52;8.90;99.90
13389;DHT22;6764;53.250;10.410;2023-01-13T09:27:18;9.00;99.90
13389;DHT22;6764;53.250;10.410;2023-01-13T09:29:44;9.00;99.90
13389;DHT22;6764;53.250;10.410;2023-01-13T09:32:13;9.10;99.90
13389;DHT22;6764;53.250;10.410;2023-01-13T09:34:39;9.10;99.90
13389;DHT22;6764;53.250;10.410;2023-01-13T09:37:23;9.10;99.90
13389;DHT22;6764;53.250;10.410;2023-01-13T09:39:48;9.20;99.90
13389;DHT22;6764;53.250;10.410;2023-01-13T09:42:31;9.30;99.90
13389;DHT22;6764;53.250;10.410;2023-01-13T09:45:30;9.40;99.90
13389;DHT22;6764;53.250;10.410;2023-01-13T09:48:11;9.30;99.90
13389;DHT22;6764;53.250;10.410;2023-01-13T09:51:11;9.40;99.90
13389;DHT22;6764;53.250;10.410;2023-01-13T09:53:49;9.40;99.90
13389;DHT22;6764;53.250;10.410;2023-01-13T09:56:16;9.30;99.90
13389;DHT22;6764;53.250;10.410;2023-01-13T09:58:43;9.20;99.90
13389;DHT22;6764;53.250;10.410;2023-01-13T10:03:47;9.20;99.90
13389;DHT22;6764;53.250;10.410;2023-01-13T10:08:48;9.30;99.90
13389;DHT22;6764;53.250;10.410;2023-01-13T10:11:19;9.30;99.90
13389;DHT22;6764;53.250;10.410;2023-01-13T10:14:31;9.50;99.90
13389;DHT22;6764;53.250;10.410;2023-01-13T10:17:03;9.50;99.90
13389;DHT22;6764;53.250;10.410;2023-01-13T10:19:54;9.70;99.90
13389;DHT22;6764;53.250;10.410;2023-01-13T10:22:52;9.80;99.90
13389;DHT22;6764;53.250;10.410;2023-01-13T10:28:12;9.90;99.90
13389;DHT22;6764;53.250;10.410;2023-01-13T10:30:41;9.90;99.90
13389;DHT22;6764;53.250;10.410;2023-01-13T10:33:16;9.90;99.90
13389;DHT22;6764;53.250;10.410;2023-01-13T10:40:59;9.80;99.90
13389;DHT22;6764;53.250;10.410;2023-01-13T10:43:26;9.80;99.90
13389;DHT22;6764;53.250;10.410;2023-01-13T10:48:39;9.70;99.90
13389;DHT22;6764;53.250;10.410;2023-01-13T10:56:42;9.70;99.90
13389;DHT22;6764;53.250;10.410;2023-01-13T10:59:20;9.70;99.90
13389;DHT22;6764;53.250;10.410;2023-01-13T11:02:02;9.70;99.90
13389;DHT22;6764;53.250;10.410;2023-01-13T11:04:37;9.80;99.90
13389;DHT22;6764;53.250;10.410;2023-01-13T11:07:04;9.80;99.90
13389;DHT22;6764;53.250;10.410;2023-01-13T11:09:31;9.80;99.90
13389;DHT22;6764;53.250;10.410;2023-01-13T11:11:57;9.80;99.90
13389;DHT22;6764;53.250;10.410;2023-01-13T11:19:52;9.70;99.90
13389;DHT22;6764;53.250;10.410;2023-01-13T11:22:24;9.60;99.90
13389;DHT22;6764;53.250;10.410;2023-01-13T11:24:56;9.60;99.90
13389;DHT22;6764;53.250;10.410;2023-01-13T11:27:39;9.60;99.90
13389;DHT22;6764;53.250;10.410;2023-01-13T11:30:31;9.50;99.90
13389;DHT22;6764;53.250;10.410;2023-01-13T11:35:44;9.60;99.90
13389;DHT22;6764;53.250;10.410;2023-01-13T11:38:19;9.50;99.90
13389;DHT22;6764;53.250;10.410;2023-01-13T11:40:49;9.60;99.90
13389;DHT22;6764;53.250;10.410;2023-01-13T11:45:54;9.60;99.90
13389;DHT22;6764;53.250;10.410;2023-01-13T11:48:23;9.80;99.90
13389;DHT22;6764;53.250;10.410;2023-01-13T12:05:18;10.00;99.90
13389;DHT22;6764;53.250;10.410;2023-01-13T12:13:21;9.80;99.90
13389;DHT22;6764;53.250;10.410;2023-01-13T12:21:23;9.70;99.90
13389;DHT22;6764;53.250;10.410;2023-01-13T12:26:24;9.70;99.90
13389;DHT22;6764;53.250;10.410;2023-01-13T12:29:05;9.60;99.90
13389;DHT22;6764;53.250;10.410;2023-01-13T12:31:35;9.60;99.90
13389;DHT22;6764;53.250;10.410;2023-01-13T12:34:24;9.70;99.90
13389;DHT22;6764;53.250;10.410;2023-01-13T12:47:40;9.80;99.90
13389;DHT22;6764;53.250;10.410;2023-01-13T12:52:52;9.80;99.90
13389;DHT22;6764;53.250;10.410;2023-01-13T12:55:30;9.70;99.90
13389;DHT22;6764;53.250;10.410;2023-01-13T13:14:10;9.60;99.90
13389;DHT22;6764;53.250;10.410;2023-01-13T13:16:46;9.60;99.90
13389;DHT22;6764;53.250;10.410;2023-01-13T13:27:32;9.60;99.90
13389;DHT22;6764;53.250;10.410;2023-01-13T13:35:59;9.50;99.90
13389;DHT22;6764;53.250;10.410;2023-01-13T13:38:52;9.70;99.90
13389;DHT22;6764;53.250;10.410;2023-01-13T13:41:44;9.60;99.90
13389;DHT22;6764;53.250;10.410;2023-01-13T13:44:34;9.60;99.90
13389;DHT22;6764;53.250;10.410;2023-01-13T13:47:19;9.60;99.90
13389;DHT22;6764;53.250;10.410;2023-01-13T13:49:48;9.70;99.90
13389;DHT22;6764;53.250;10.410;2023-01-13T13:52:39;9.60;99.90
13389;DHT22;6764;53.250;10.410;2023-01-13T13:55:15;9.70;99.90
13389;DHT22;6764;53.250;10.410;2023-01-13T13:57:46;9.70;99.90
13389;DHT22;6764;53.250;10.410;2023-01-13T14:02:56;9.80;99.90
13389;DHT22;6764;53.250;10.410;2023-01-13T14:05:24;9.80;99.90
13389;DHT22;6764;53.250;10.410;2023-01-13T14:07:57;9.70;99.90
13389;DHT22;6764;53.250;10.410;2023-01-13T14:10:33;9.60;99.90
13389;DHT22;6764;53.250;10.410;2023-01-13T14:13:00;9.40;99.90
13389;DHT22;6764;53.250;10.410;2023-01-13T14:15:34;9.40;99.90
13389;DHT22;6764;53.250;10.410;2023-01-13T14:18:03;9.40;99.90
13389;DHT22;6764;53.250;10.410;2023-01-13T14:20:29;9.30;99.90
13389;DHT22;6764;53.250;10.410;2023-01-13T14:22:55;9.30;99.90
13389;DHT22;6764;53.250;10.410;2023-01-13T14:25:39;9.30;99.90
13389;DHT22;6764;53.250;10.410;2023-01-13T14:30:35;9.40;99.90
13389;DHT22;6764;53.250;10.410;2023-01-13T14:33:01;9.30;99.90
13389;DHT22;6764;53.250;10.410;2023-01-13T14:35:27;9.30;99.90
13389;DHT22;6764;53.250;10.410;2023-01-13T14:38:01;9.30;99.90
13389;DHT22;6764;53.250;10.410;2023-01-13T14:43:01;9.40;99.90
13389;DHT22;6764;53.250;10.410;2023-01-13T14:45:27;9.40;99.90
13389;DHT22;6764;53.250;10.410;2023-01-13T14:47:55;9.40;99.90
13389;DHT22;6764;53.250;10.410;2023-01-13T14:50:24;9.40;99.90
13389;DHT22;6764;53.250;10.410;2023-01-13T14:52:56;9.40;99.90
13389;DHT22;6764;53.250;10.410;2023-01-13T14:55:27;9.50;99.90
13389;DHT22;6764;53.250;10.410;2023-01-13T15:00:45;9.40;99.90
13389;DHT22;6764;53.250;10.410;2023-01-13T15:03:14;9.40;99.90
13389;DHT22;6764;53.250;10.410;2023-01-13T15:05:41;9.40;99.90
13389;DHT22;6764;53.250;10.410;2023-01-13T15:13:43;9.30;99.90
13389;DHT22;6764;53.250;10.410;2023-01-13T15:16:24;9.40;99.90
13389;DHT22;6764;53.250;10.410;2023-01-13T15:18:50;9.40;99.90
13389;DHT22;6764;53.250;10.410;2023-01-13T15:21:16;9.40;99.90
13389;DHT22;6764;53.250;10.410;2023-01-13T15:23:42;9.40;99.90
13389;DHT22;6764;53.250;10.410;2023-01-13T15:26:21;9.40;99.90
13389;DHT22;6764;53.250;10.410;2023-01-13T15:28:48;9.40;99.90
13389;DHT22;6764;53.250;10.410;2023-01-13T15:31:14;9.30;99.90
13389;DHT22;6764;53.250;10.410;2023-01-13T15:33:40;9.30;99.90
13389;DHT22;6764;53.250;10.410;2023-01-13T15:36:26;9.20;99.90
13389;DHT22;6764;53.250;10.410;2023-01-13T15:38:52;9.20;99.90
13389;DHT22;6764;53.250;10.410;2023-01-13T15:41:18;9.20;99.90
13389;DHT22;6764;53.250;10.410;2023-01-13T15:44:04;9.20;99.90
13389;DHT22;6764;53.250;10.410;2023-01-13T15:46:49;9.20;99.90
13389;DHT22;6764;53.250;10.410;2023-01-13T15:49:32;9.10;99.90
13389;DHT22;6764;53.250;10.410;2023-01-13T15:52:19;9.20;99.90
13389;DHT22;6764;53.250;10.410;2023-01-13T15:54:46;9.10;99.90
13389;DHT22;6764;53.250;10.410;2023-01-13T15:57:21;9.10;99.90
13389;DHT22;6764;53.250;10.410;2023-01-13T15:59:47;9.10;99.90
13389;DHT22;6764;53.250;10.410;2023-01-13T16:02:13;9.10;99.90
13389;DHT22;6764;53.250;10.410;2023-01-13T16:04:43;9.10;99.90
13389;DHT22;6764;53.250;10.410;2023-01-13T16:07:16;9.20;99.90
13389;DHT22;6764;53.250;10.410;2023-01-13T16:09:43;9.20;99.90
13389;DHT22;6764;53.250;10.410;2023-01-13T16:12:10;9.20;99.90
13389;DHT22;6764;53.250;10.410;2023-01-13T16:14:35;9.20;99.90
13389;DHT22;6764;53.250;10.410;2023-01-13T16:17:02;9.20;99.90
13389;DHT22;6764;53.250;10.410;2023-01-13T16:19:35;9.20;99.90
13389;DHT22;6764;53.250;10.410;2023-01-13T16:22:00;9.20;99.90
13389;DHT22;6764;53.250;10.410;2023-01-13T16:24:26;9.20;99.90
13389;DHT22;6764;53.250;10.410;2023-01-13T16:26:51;9.20;99.90
13389;DHT22;6764;53.250;10.410;2023-01-13T16:29:17;9.10;99.90
13389;DHT22;6764;53.250;10.410;2023-01-13T16:31:42;9.10;99.90
13389;DHT22;6764;53.250;10.410;2023-01-13T16:34:08;9.10;99.90
13389;DHT22;6764;53.250;10.410;2023-01-13T16:36:35;9.00;99.90
13389;DHT22;6764;53.250;10.410;2023-01-13T16:39:02;9.00;99.90
13389;DHT22;6764;53.250;10.410;2023-01-13T16:41:28;9.00;99.90
13389;DHT22;6764;53.250;10.410;2023-01-13T16:43:53;9.00;99.90
13389;DHT22;6764;53.250;10.410;2023-01-13T16:46:20;9.00;99.90
13389;DHT22;6764;53.250;10.410;2023-01-13T16:48:47;9.00;99.90
13389;DHT22;6764;53.250;10.410;2023-01-13T16:51:14;9.00;99.90
13389;DHT22;6764;53.250;10.410;2023-01-13T16:53:40;9.00;99.90
13389;DHT22;6764;53.250;10.410;2023-01-13T16:56:24;9.00;99.90
13389;DHT22;6764;53.250;10.410;2023-01-13T16:58:51;9.00;99.90
13389;DHT22;6764;53.250;10.410;2023-01-13T17:01:23;9.00;99.90
13389;DHT22;6764;53.250;10.410;2023-01-13T17:03:49;9.00;99.90
13389;DHT22;6764;53.250;10.410;2023-01-13T17:06:38;9.10;99.90
13389;DHT22;6764;53.250;10.410;2023-01-13T17:09:04;9.10;99.90
13389;DHT22;6764;53.250;10.410;2023-01-13T17:11:30;9.10;99.90
13389;DHT22;6764;53.250;10.410;2023-01-13T17:13:56;9.00;99.90
13389;DHT22;6764;53.250;10.410;2023-01-13T17:16:22;9.00;99.90
13389;DHT22;6764;53.250;10.410;2023-01-13T17:18:50;9.00;99.90
13389;DHT22;6764;53.250;10.410;2023-01-13T17:21:17;9.00;99.90
13389;DHT22;6764;53.250;10.410;2023-01-13T17:23:43;8.90;99.90
13389;DHT22;6764;53.250;10.410;2023-01-13T17:26:30;8.90;99.90
13389;DHT22;6764;53.250;10.410;2023-01-13T17:29:00;8.80;99.90
13389;DHT22;6764;53.250;10.410;2023-01-13T17:31:27;8.80;99.90
13389;DHT22;6764;53.250;10.410;2023-01-13T17:33:53;8.70;99.90
13389;DHT22;6764;53.250;10.410;2023-01-13T17:36:18;8.60;99.90
13389;DHT22;6764;53.250;10.410;2023-01-13T17:38:44;8.40;99.90
13389;DHT22;6764;53.250;10.410;2023-01-13T17:41:10;8.50;99.90
13389;DHT22;6764;53.250;10.410;2023-01-13T17:43:35;8.40;99.90
13389;DHT22;6764;53.250;10.410;2023-01-13T17:46:01;8.30;99.90
13389;DHT22;6764;53.250;10.410;2023-01-13T17:48:30;8.20;99.90
13389;DHT22;6764;53.250;10.410;2023-01-13T17:50:56;8.20;99.90
13389;DHT22;6764;53.250;10.410;2023-01-13T17:53:22;8.10;99.90
13389;DHT22;6764;53.250;10.410;2023-01-13T17:55:52;8.00;99.90
13389;DHT22;6764;53.250;10.410;2023-01-13T17:58:21;7.90;99.90
13389;DHT22;6764;53.250;10.410;2023-01-13T18:00:47;7.80;99.90
13389;DHT22;6764;53.250;10.410;2023-01-13T18:03:14;7.70;99.90
13389;DHT22;6764;53.250;10.410;2023-01-13T18:05:39;7.60;99.90
13389;DHT22;6764;53.250;10.410;2023-01-13T18:08:06;7.60;99.90
13389;DHT22;6764;53.250;10.410;2023-01-13T18:10:32;7.50;99.90
13389;DHT22;6764;53.250;10.410;2023-01-13T18:12:58;7.60;99.90
13389;DHT22;6764;53.250;10.410;2023-01-13T18:15:24;7.50;99.90
13389;DHT22;6764;53.250;10.410;2023-01-13T18:17:50;7.50;99.90
13389;DHT22;6764;53.250;10.410;2023-01-13T18:20:16;7.40;99.90
13389;DHT22;6764;53.250;10.410;2023-01-13T18:23:01;7.40;99.90
13389;DHT22;6764;53.250;10.410;2023-01-13T18:25:45;7.40;99.90
13389;DHT22;6764;53.250;10.410;2023-01-13T18:28:30;7.40;99.90
13389;DHT22;6764;53.250;10.410;2023-01-13T18:30:55;7.40;99.90
13389;DHT22;6764;53.250;10.410;2023-01-13T18:33:21;7.40;99.90
13389;DHT22;6764;53.250;10.410;2023-01-13T18:35:47;7.40;99.90
13389;DHT22;6764;53.250;10.410;2023-01-13T18:38:13;7.30;99.90